Time;durP1;ratioP1;P1;durP2;ratioP2;P2;SDS_P1;SDS_P2;PMS_P1;PMS_P2;Temp;Humidity;BMP_temperature;BMP_pressure;BME280_temperature;BME280_humidity;BME280_pressure;Samples;Min_cycle;Max_cycle;Signal;HPM_P1;HPM_P2
2023/11/20 00:01:24;;;;;;;1.60;0.70;;;;;;;8.87;100.00;97472.38;6199996;28;20295;-46
2023/11/20 00:04:26;;;;;;;1.53;0.80;;;;;;;8.76;100.00;97507.72;6210087;28;20196;-44
2023/11/20 00:07:29;;;;;;;2.13;1.10;;;;;;;8.81;100.00;97504.34;6217211;28;20688;-45
2023/11/20 00:10:38;;;;;;;2.73;1.20;;;;;;;8.52;100.00;97475.06;6210967;28;20196;-44
2023/11/20 00:13:41;;;;;;;2.60;1.50;;;;;;;8.72;100.00;97519.88;6207300;28;20694;-46
2023/11/20 00:16:43;;;;;;;1.17;0.97;;;;;;;8.72;100.00;97538.47;6187177;28;20360;-45
2023/11/20 00:19:45;;;;;;;3.17;0.83;;;;;;;8.84;100.00;97543.75;6207188;28;20803;-46
2023/11/20 00:22:47;;;;;;;1.97;1.10;;;;;;;8.69;100.00;97538.91;6196686;28;20198;-45
2023/11/20 00:25:49;;;;;;;1.83;0.90;;;;;;;8.54;100.00;97542.03;6205661;28;20846;-47
2023/11/20 00:28:53;;;;;;;1.90;0.90;;;;;;;8.56;100.00;97528.53;6212194;28;20636;-47
2023/11/20 00:31:55;;;;;;;2.37;0.70;;;;;;;8.71;100.00;97537.63;6215135;28;20263;-44
2023/11/20 00:34:57;;;;;;;2.37;0.83;;;;;;;8.59;100.00;97526.22;6218141;28;20590;-44
2023/11/20 00:37:59;;;;;;;3.50;1.10;;;;;;;8.49;100.00;97555.19;6212408;28;20209;-44
2023/11/20 00:41:02;;;;;;;2.40;1.07;;;;;;;8.35;100.00;97565.19;6208565;28;20249;-46
2023/11/20 00:44:06;;;;;;;0.90;0.67;;;;;;;8.45;100.00;97562.81;6201235;28;20869;-48
2023/11/20 00:47:09;;;;;;;1.93;0.97;;;;;;;8.53;100.00;97522.66;6202540;28;20237;-46
2023/11/20 00:50:11;;;;;;;2.70;0.60;;;;;;;8.62;100.00;97532.91;6184243;28;20295;-45
2023/11/20 00:53:13;;;;;;;1.77;0.60;;;;;;;8.58;100.00;97563.63;6217691;28;20204;-46
2023/11/20 00:56:18;;;;;;;3.53;0.97;;;;;;;8.49;100.00;97547.25;6195046;28;20936;-45
2023/11/20 00:59:20;;;;;;;3.60;1.00;;;;;;;8.20;100.00;97540.97;6207952;28;20574;-47
2023/11/20 01:02:22;;;;;;;2.43;0.80;;;;;;;8.19;100.00;97528.75;6206841;28;20197;-47
2023/11/20 01:05:24;;;;;;;2.17;0.90;;;;;;;8.11;100.00;97527.22;6216900;28;20874;-46
2023/11/20 01:08:26;;;;;;;2.77;1.10;;;;;;;8.06;100.00;97507.72;6209086;28;20197;-47
2023/11/20 01:11:28;;;;;;;1.67;0.87;;;;;;;8.10;100.00;97492.97;6212459;28;20659;-47
2023/11/20 01:14:31;;;;;;;2.00;0.80;;;;;;;8.10;100.00;97508.88;6203992;28;20194;-46
2023/11/20 01:17:33;;;;;;;2.53;0.67;;;;;;;8.20;100.00;97514.44;6198401;28;20530;-47
2023/11/20 01:20:35;;;;;;;1.30;0.80;;;;;;;8.14;100.00;97515.34;6198538;28;20212;-44
2023/11/20 01:23:39;;;;;;;1.60;1.10;;;;;;;8.15;100.00;97506.34;6208284;28;20208;-45
2023/11/20 01:26:42;;;;;;;3.07;0.73;;;;;;;8.14;100.00;97521.47;6201190;28;20255;-46
2023/11/20 01:29:45;;;;;;;2.10;0.70;;;;;;;8.13;100.00;97527.81;6204363;28;20192;-46
2023/11/20 01:32:47;;;;;;;2.40;0.70;;;;;;;8.26;100.00;97516.97;6171956;28;20234;-45
2023/11/20 01:35:51;;;;;;;1.13;0.60;;;;;;;8.37;100.00;97503.94;6189783;28;20205;-44
2023/11/20 01:38:53;;;;;;;1.67;1.03;;;;;;;8.23;100.00;97498.88;6197430;28;20288;-46
2023/11/20 01:41:55;;;;;;;2.60;0.80;;;;;;;8.38;100.00;97490.47;6194154;28;20213;-44
2023/11/20 01:44:59;;;;;;;1.57;0.70;;;;;;;8.39;100.00;97480.66;6194349;28;20201;-45
2023/11/20 01:48:01;;;;;;;2.87;1.10;;;;;;;8.32;100.00;97475.41;6192427;28;20206;-46
2023/11/20 01:51:04;;;;;;;1.10;0.70;;;;;;;8.22;100.00;97469.88;6194300;28;20294;-46
2023/11/20 01:54:08;;;;;;;3.53;0.67;;;;;;;8.18;100.00;97458.94;6193660;28;20205;-45
2023/11/20 01:57:11;;;;;;;2.37;0.90;;;;;;;8.14;100.00;97478.22;6193015;28;20676;-46
2023/11/20 02:00:16;;;;;;;3.20;0.97;;;;;;;8.05;100.00;97463.66;6177092;28;20218;-46
2023/11/20 02:03:19;;;;;;;4.23;0.87;;;;;;;7.98;100.00;97464.59;6169217;28;20202;-44
2023/11/20 02:06:24;;;;;;;3.73;1.23;;;;;;;7.85;100.00;97461.34;6194367;28;20208;-46
2023/11/20 02:09:26;;;;;;;4.00;0.90;;;;;;;7.81;100.00;97465.50;6186738;28;20317;-45
2023/11/20 02:12:28;;;;;;;2.77;1.03;;;;;;;7.69;100.00;97446.94;6190207;28;20681;-43
2023/11/20 02:15:30;;;;;;;3.23;0.97;;;;;;;7.87;100.00;97443.34;6193395;28;20193;-47
2023/11/20 02:18:34;;;;;;;2.27;0.90;;;;;;;7.86;100.00;97470.94;6177066;28;20201;-45
2023/11/20 02:21:36;;;;;;;3.87;1.37;;;;;;;8.11;100.00;97452.13;6176987;28;20213;-45
2023/11/20 02:24:38;;;;;;;4.50;0.90;;;;;;;8.08;100.00;97441.97;6177743;28;20800;-44
2023/11/20 02:28:13;;;;;;;3.00;1.23;;;;;;;7.98;100.00;97426.66;6196070;28;20220;-46
2023/11/20 02:31:16;;;;;;;4.20;0.97;;;;;;;8.05;100.00;97434.50;6197902;28;20239;-47
2023/11/20 02:34:18;;;;;;;2.87;0.80;;;;;;;7.55;100.00;97388.03;6176077;28;20225;-46
2023/11/20 02:37:20;;;;;;;2.27;1.03;;;;;;;7.81;100.00;97425.72;6191372;28;20693;-47
2023/11/20 02:40:22;;;;;;;2.73;0.90;;;;;;;7.79;100.00;97423.31;6175332;28;20703;-47
2023/11/20 02:43:26;;;;;;;4.47;1.40;;;;;;;8.15;100.00;97432.06;6193635;28;20200;-45
2023/11/20 02:46:29;;;;;;;3.00;1.10;;;;;;;8.09;100.00;97430.34;6175345;28;20624;-46
2023/11/20 02:49:31;;;;;;;5.13;1.30;;;;;;;8.09;100.00;97444.41;6191282;28;20198;-47
2023/11/20 02:52:33;;;;;;;3.60;1.00;;;;;;;7.97;100.00;97430.31;6192593;28;20688;-48
2023/11/20 02:55:35;;;;;;;5.50;1.00;;;;;;;8.14;100.00;97418.00;6191901;28;20205;-48
2023/11/20 02:58:37;;;;;;;4.47;1.10;;;;;;;7.87;100.00;97393.78;6163345;28;20658;-47
2023/11/20 03:01:46;;;;;;;4.70;1.30;;;;;;;7.91;100.00;97405.53;6175515;28;20220;-45
2023/11/20 03:04:49;;;;;;;5.60;1.30;;;;;;;7.75;100.00;97390.34;6187940;28;20304;-47
2023/11/20 03:07:51;;;;;;;2.13;0.80;;;;;;;8.04;100.00;97404.50;6193150;28;20205;-47
2023/11/20 03:10:53;;;;;;;3.20;1.00;;;;;;;7.89;100.00;97409.47;6192795;28;20198;-49
2023/11/20 03:13:55;;;;;;;5.30;1.40;;;;;;;8.46;100.00;97391.88;6175552;28;20636;-48
2023/11/20 03:16:58;;;;;;;4.97;1.30;;;;;;;8.41;100.00;97372.38;6192365;28;20589;-47
2023/11/20 03:20:02;;;;;;;3.03;0.90;;;;;;;8.33;100.00;97384.16;6192676;28;20217;-46
2023/11/20 03:23:04;;;;;;;6.03;1.27;;;;;;;8.32;100.00;97340.06;6192958;28;20558;-49
2023/11/20 03:26:07;;;;;;;6.10;1.47;;;;;;;8.64;100.00;97388.25;6193333;28;20209;-45
2023/11/20 03:29:10;;;;;;;3.97;1.27;;;;;;;8.36;100.00;97389.00;6173426;28;20686;-46
2023/11/20 03:32:12;;;;;;;6.63;1.30;;;;;;;8.12;100.00;97390.88;6208118;28;20239;-47
2023/11/20 03:35:14;;;;;;;10.83;1.80;;;;;;;8.49;100.00;97391.41;6221344;28;20192;-47
2023/11/20 03:38:16;;;;;;;5.87;1.30;;;;;;;8.67;100.00;97389.59;6219352;28;20673;-50
2023/11/20 03:41:18;;;;;;;6.53;1.63;;;;;;;8.45;100.00;97384.16;6220976;28;21044;-47
2023/11/20 03:44:20;;;;;;;5.90;1.57;;;;;;;8.16;100.00;97370.00;6221648;28;20661;-44
2023/11/20 03:47:22;;;;;;;4.77;1.20;;;;;;;8.33;100.00;97378.84;6222868;28;20255;-45
2023/11/20 03:50:24;;;;;;;4.23;1.07;;;;;;;8.20;100.00;97357.88;6220286;28;20675;-45
2023/11/20 03:53:27;;;;;;;4.43;1.00;;;;;;;7.88;100.00;97362.75;6218486;28;20246;-43
2023/11/20 03:56:29;;;;;;;5.93;1.70;;;;;;;7.67;100.00;97366.81;6219883;28;20251;-45
2023/11/20 03:59:31;;;;;;;3.50;1.30;;;;;;;7.62;100.00;97369.34;6221354;28;20208;-45
2023/11/20 04:02:33;;;;;;;8.40;1.70;;;;;;;8.02;100.00;97356.97;6219995;28;20720;-46
2023/11/20 04:05:37;;;;;;;3.67;1.20;;;;;;;8.31;100.00;97372.97;6224059;28;20189;-46
2023/11/20 04:08:39;;;;;;;4.00;1.40;;;;;;;8.39;100.00;97369.97;6219312;28;20197;-46
2023/11/20 04:11:41;;;;;;;6.33;1.43;;;;;;;8.83;100.00;97366.81;6220537;28;20187;-45
2023/11/20 04:14:43;;;;;;;7.13;1.57;;;;;;;8.61;100.00;97350.72;6223594;28;20699;-45
2023/11/20 04:17:45;;;;;;;3.47;1.30;;;;;;;8.58;100.00;97345.91;6208744;28;20204;-45
2023/11/20 04:20:48;;;;;;;5.83;1.30;;;;;;;8.54;100.00;97361.50;6220806;28;20201;-45
2023/11/20 04:23:51;;;;;;;4.57;1.30;;;;;;;8.37;100.00;97356.13;6221544;28;20622;-45
2023/11/20 04:26:54;;;;;;;9.13;1.50;;;;;;;8.26;100.00;97351.63;6220594;28;20723;-45
2023/11/20 04:29:56;;;;;;;3.97;1.20;;;;;;;8.55;100.00;97341.88;6216996;28;20209;-47
2023/11/20 04:32:58;;;;;;;6.77;1.47;;;;;;;8.52;100.00;97359.09;6220571;28;20252;-44
2023/11/20 04:36:03;;;;;;;5.57;1.40;;;;;;;8.44;100.00;97342.72;6220133;28;20181;-44
2023/11/20 04:39:05;;;;;;;7.27;1.53;;;;;;;8.20;100.00;97352.56;6218774;28;20223;-44
2023/11/20 04:42:07;;;;;;;5.80;1.50;;;;;;;8.13;100.00;97349.25;6219846;28;20716;-44
2023/11/20 04:45:10;;;;;;;6.20;1.07;;;;;;;8.42;100.00;97332.34;6220079;28;20197;-47
2023/11/20 04:48:12;;;;;;;3.27;0.97;;;;;;;8.13;100.00;97314.75;6218642;28;20641;-48
2023/11/20 04:51:25;;;;;;;6.37;1.47;;;;;;;8.08;100.00;97333.19;6220558;28;20665;-45
2023/11/20 04:54:34;;;;;;;6.70;1.37;;;;;;;7.98;100.00;97320.56;6214677;28;20608;-44
2023/11/20 04:57:37;;;;;;;5.20;1.53;;;;;;;7.99;100.00;97312.38;6224303;28;20201;-43
2023/11/20 05:00:39;;;;;;;3.93;1.13;;;;;;;8.08;100.00;97315.47;6219812;28;20201;-44
2023/11/20 05:03:43;;;;;;;4.23;1.23;;;;;;;8.02;100.00;97295.97;6219634;28;20195;-44
2023/11/20 05:06:49;;;;;;;5.63;1.30;;;;;;;8.18;100.00;97317.50;6218883;28;20208;-44
2023/11/20 05:09:51;;;;;;;2.30;1.00;;;;;;;8.04;100.00;97281.69;6219330;28;20242;-45
2023/11/20 05:12:53;;;;;;;3.63;1.07;;;;;;;8.84;100.00;97304.69;6219357;28;20200;-44
2023/11/20 05:15:55;;;;;;;3.63;1.10;;;;;;;8.88;100.00;97301.31;6221242;28;20709;-44
2023/11/20 05:18:57;;;;;;;5.03;1.43;;;;;;;8.71;100.00;97303.94;6231955;28;20898;-44
2023/11/20 05:21:59;;;;;;;3.73;1.50;;;;;;;8.51;100.00;97296.41;6219075;28;20708;-45
2023/11/20 05:25:01;;;;;;;2.37;1.07;;;;;;;9.08;100.00;97308.00;6219250;28;20731;-44
2023/11/20 05:28:03;;;;;;;4.50;1.10;;;;;;;8.87;100.00;97305.03;6218581;28;20210;-57
2023/11/20 05:31:05;;;;;;;4.73;1.00;;;;;;;8.71;100.00;97305.78;6216163;28;20755;-56
2023/11/20 05:34:08;;;;;;;4.37;1.10;;;;;;;8.98;100.00;97309.44;6218920;28;20666;-57
2023/11/20 05:37:10;;;;;;;4.23;1.00;;;;;;;8.85;100.00;97280.53;6218294;28;20207;-58
2023/11/20 05:40:13;;;;;;;2.17;0.80;;;;;;;9.15;100.00;97313.97;6218486;28;20198;-57
2023/11/20 05:43:18;;;;;;;2.53;0.90;;;;;;;8.94;100.00;97307.50;6217763;28;20197;-56
2023/11/20 05:46:20;;;;;;;4.57;1.40;;;;;;;9.13;97.71;97308.91;6217498;28;20224;-57
2023/11/20 05:49:22;;;;;;;4.73;1.70;;;;;;;9.20;95.70;97285.59;6218072;28;20282;-53
2023/11/20 05:52:25;;;;;;;5.87;1.20;;;;;;;9.35;94.62;97310.81;6218743;28;20279;-56
2023/11/20 05:55:29;;;;;;;3.80;1.27;;;;;;;9.48;93.63;97307.81;6216117;28;20289;-56
2023/11/20 05:58:31;;;;;;;3.30;1.03;;;;;;;9.65;92.97;97297.16;6218509;28;20193;-56
2023/11/20 06:01:42;;;;;;;3.67;1.10;;;;;;;9.70;90.86;97323.81;6216909;28;20217;-56
2023/11/20 06:04:45;;;;;;;4.73;1.20;;;;;;;9.53;95.64;97321.19;6214816;28;20194;-53
2023/11/20 06:07:47;;;;;;;2.50;0.90;;;;;;;9.65;89.66;97321.09;6217884;28;20202;-58
2023/11/20 06:10:49;;;;;;;2.40;1.07;;;;;;;9.41;92.59;97307.19;6217881;28;20193;-57
2023/11/20 06:13:51;;;;;;;3.30;1.07;;;;;;;9.24;93.21;97301.88;6216311;28;20237;-56
2023/11/20 06:16:53;;;;;;;4.70;1.33;;;;;;;9.19;94.76;97289.31;6217794;28;20206;-54
2023/11/20 06:19:57;;;;;;;5.13;1.03;;;;;;;9.89;86.42;97300.41;6217620;28;20909;-56
2023/11/20 06:22:59;;;;;;;6.13;1.47;;;;;;;9.76;85.50;97251.84;6219718;28;20589;-56
2023/11/20 06:26:01;;;;;;;6.47;1.10;;;;;;;9.79;85.46;97287.78;6217790;28;20197;-56
2023/11/20 06:29:03;;;;;;;4.43;1.00;;;;;;;9.65;86.23;97283.84;6214937;28;20699;-57
2023/11/20 06:32:08;;;;;;;6.47;1.20;;;;;;;9.46;90.97;97310.75;6216906;28;20243;-55
2023/11/20 06:35:10;;;;;;;2.87;0.80;;;;;;;9.45;88.96;97303.00;6217937;28;20791;-58
2023/11/20 06:38:13;;;;;;;3.93;1.57;;;;;;;9.52;87.22;97293.81;6214673;28;20198;-56
2023/11/20 06:41:18;;;;;;;4.93;1.23;;;;;;;9.47;89.58;97336.28;6216089;28;20788;-58
2023/11/20 06:44:20;;;;;;;3.77;1.10;;;;;;;9.79;85.34;97303.72;6217668;28;20310;-57
2023/11/20 06:47:24;;;;;;;3.87;0.90;;;;;;;9.78;87.36;97318.09;6216761;28;20215;-56
2023/11/20 06:50:27;;;;;;;5.30;1.13;;;;;;;9.54;88.89;97323.59;6214805;28;20199;-55
2023/11/20 06:53:29;;;;;;;5.07;1.10;;;;;;;9.43;93.15;97323.72;6217519;28;20277;-58
2023/11/20 06:56:33;;;;;;;3.30;1.00;;;;;;;9.22;94.77;97336.69;6216391;28;20290;-57
2023/11/20 06:59:35;;;;;;;2.97;1.00;;;;;;;9.78;86.88;97358.00;6219213;28;20199;-56
2023/11/20 07:02:38;;;;;;;2.43;1.10;;;;;;;9.89;85.18;97353.63;6215826;28;20256;-58
2023/11/20 07:05:40;;;;;;;4.03;1.13;;;;;;;9.58;89.73;97326.59;6216479;28;20543;-57
2023/11/20 07:08:43;;;;;;;2.50;1.03;;;;;;;9.63;89.25;97329.31;6221619;28;20663;-56
2023/11/20 07:11:45;;;;;;;3.93;1.37;;;;;;;10.06;84.34;97360.53;6221762;28;20210;-56
2023/11/20 07:14:47;;;;;;;2.53;0.90;;;;;;;10.04;85.93;97354.63;6223200;28;20654;-56
2023/11/20 07:17:50;;;;;;;3.90;1.00;;;;;;;9.65;88.54;97345.03;6221977;28;20200;-56
2023/11/20 07:20:53;;;;;;;4.53;1.03;;;;;;;9.87;86.73;97356.53;6220966;28;20305;-54
2023/11/20 07:23:57;;;;;;;5.30;1.27;;;;;;;9.87;83.57;97329.94;6221850;28;20879;-58
2023/11/20 07:27:00;;;;;;;5.07;1.20;;;;;;;9.74;88.38;97351.53;6221207;28;20247;-58
2023/11/20 07:30:05;;;;;;;5.10;1.40;;;;;;;9.49;91.37;97358.09;6220086;28;20194;-56
2023/11/20 07:33:07;;;;;;;3.13;1.03;;;;;;;9.48;87.41;97359.16;6221321;28;20240;-55
2023/11/20 07:36:09;;;;;;;3.13;1.10;;;;;;;9.56;89.41;97372.03;6221703;28;20558;-55
2023/11/20 07:39:12;;;;;;;7.07;1.47;;;;;;;10.21;81.62;97365.25;6221665;28;20239;-54
2023/11/20 07:42:15;;;;;;;3.97;1.10;;;;;;;10.00;84.05;97358.03;6221301;28;20212;-57
2023/11/20 07:45:18;;;;;;;5.10;1.67;;;;;;;10.12;81.21;97374.69;6220785;28;20562;-53
2023/11/20 07:48:20;;;;;;;8.77;1.83;;;;;;;10.14;82.87;97364.59;6221666;28;20220;-57
2023/11/20 07:51:22;;;;;;;4.77;1.23;;;;;;;10.47;78.31;97363.72;6223808;28;20192;-57
2023/11/20 07:54:26;;;;;;;5.30;1.50;;;;;;;10.53;79.10;97367.25;6221878;28;20256;-57
2023/11/20 07:57:28;;;;;;;4.20;1.67;;;;;;;10.71;74.81;97350.13;6220530;28;20739;-57
2023/11/20 08:00:30;;;;;;;3.70;1.57;;;;;;;10.79;75.53;97365.69;6220539;28;20694;-55
2023/11/20 08:03:32;;;;;;;4.43;1.63;;;;;;;10.49;80.76;97368.78;6218884;28;20207;-57
2023/11/20 08:06:34;;;;;;;6.57;1.40;;;;;;;10.35;78.47;97349.75;6221024;28;20192;-58
2023/11/20 08:09:36;;;;;;;7.20;1.43;;;;;;;10.20;81.58;97376.16;6221034;28;20191;-54
2023/11/20 08:12:38;;;;;;;2.83;1.30;;;;;;;9.92;85.06;97371.75;6220724;28;20718;-54
2023/11/20 08:15:41;;;;;;;2.57;1.10;;;;;;;9.72;88.36;97362.44;6217620;28;20211;-52
2023/11/20 08:18:43;;;;;;;4.37;1.50;;;;;;;9.68;85.21;97363.16;6220616;28;20193;-58
2023/11/20 08:21:45;;;;;;;8.57;2.20;;;;;;;9.78;83.76;97364.13;6220795;28;20223;-58
2023/11/20 08:24:47;;;;;;;6.17;1.60;;;;;;;10.52;77.00;97365.63;6219315;28;20556;-55
2023/11/20 08:27:50;;;;;;;4.37;1.50;;;;;;;10.35;84.60;97376.38;6220888;28;20196;-58
2023/11/20 08:30:53;;;;;;;5.13;1.47;;;;;;;10.30;80.00;97368.31;6216614;28;20212;-57
2023/11/20 08:33:56;;;;;;;4.00;1.23;;;;;;;10.40;77.72;97368.44;6195068;28;20211;-56
2023/11/20 08:36:58;;;;;;;5.00;1.50;;;;;;;10.57;77.68;97379.81;6196369;28;20203;-57
2023/11/20 08:40:00;;;;;;;6.43;1.60;;;;;;;10.68;78.60;97372.72;6198963;28;20191;-58
2023/11/20 08:43:03;;;;;;;4.10;1.33;;;;;;;11.10;74.68;97382.78;6205848;28;20251;-58
2023/11/20 08:46:08;;;;;;;4.53;0.97;;;;;;;11.16;75.76;97365.75;6201011;28;20551;-58
2023/11/20 08:49:16;;;;;;;4.67;1.30;;;;;;;10.96;75.65;97379.69;6193178;28;20198;-55
2023/11/20 08:52:19;;;;;;;5.43;1.10;;;;;;;11.00;75.12;97394.13;6202506;28;20613;-54
2023/11/20 08:55:21;;;;;;;4.83;1.23;;;;;;;11.22;74.56;97378.06;6202971;28;20654;-57
2023/11/20 08:58:23;;;;;;;4.53;1.30;;;;;;;11.35;74.90;97385.66;6199770;28;20561;-57
2023/11/20 09:01:35;;;;;;;3.03;1.27;;;;;;;11.46;74.36;97385.75;6195349;28;20249;-58
2023/11/20 09:04:39;;;;;;;3.93;1.20;;;;;;;11.48;74.52;97395.13;6196040;28;20685;-50
2023/11/20 09:07:42;;;;;;;4.30;1.00;;;;;;;11.67;72.27;97373.38;6196407;28;20250;-61
2023/11/20 09:10:44;;;;;;;5.23;1.20;;;;;;;11.66;73.32;97379.75;6200656;28;20208;-61
2023/11/20 09:13:46;;;;;;;4.33;1.30;;;;;;;11.83;71.50;97381.28;6203837;28;20587;-59
2023/11/20 09:16:48;;;;;;;5.83;1.53;;;;;;;11.95;70.50;97354.38;6193454;28;20197;-60
2023/11/20 09:19:51;;;;;;;5.93;1.07;;;;;;;11.88;72.87;97354.59;6195421;28;20193;-59
2023/11/20 09:22:53;;;;;;;4.10;1.10;;;;;;;12.00;72.09;97351.72;6193951;28;20208;-59
2023/11/20 09:25:56;;;;;;;5.40;1.43;;;;;;;12.09;72.56;97365.41;6194651;28;20429;-59
2023/11/20 09:28:59;;;;;;;3.10;0.77;;;;;;;12.23;70.60;97339.84;6197942;28;20204;-58
2023/11/20 09:32:02;;;;;;;5.07;1.20;;;;;;;12.43;72.40;97370.38;6195737;28;20712;-59
2023/11/20 09:35:04;;;;;;;1.83;0.73;;;;;;;12.34;73.88;97367.38;6194175;28;20197;-60
2023/11/20 09:38:10;;;;;;;3.63;1.33;;;;;;;12.40;71.74;97353.78;6192990;28;20724;-60
2023/11/20 09:41:12;;;;;;;2.50;0.90;;;;;;;12.29;73.09;97352.13;6194408;28;20327;-59
2023/11/20 09:44:15;;;;;;;2.77;1.13;;;;;;;12.35;75.20;97350.28;6193760;28;20208;-57
2023/11/20 09:47:17;;;;;;;1.70;0.80;;;;;;;12.34;74.70;97373.53;6177009;28;20288;-58
2023/11/20 09:50:20;;;;;;;3.37;1.20;;;;;;;12.53;75.35;97365.88;6194313;28;20204;-55
2023/11/20 09:53:26;;;;;;;3.20;0.77;;;;;;;12.52;74.37;97374.94;6194635;28;20280;-60
2023/11/20 09:56:28;;;;;;;4.20;1.03;;;;;;;12.49;74.82;97375.47;6194141;28;20236;-56
2023/11/20 09:59:31;;;;;;;1.97;0.70;;;;;;;12.49;73.76;97369.31;6193930;28;20209;-58
2023/11/20 10:02:33;;;;;;;3.43;0.70;;;;;;;12.35;76.37;97374.34;6193796;28;20287;-60
2023/11/20 10:05:41;;;;;;;3.37;1.00;;;;;;;12.08;77.37;97367.25;6193951;28;20199;-58
2023/11/20 10:08:45;;;;;;;3.43;0.80;;;;;;;12.05;76.44;97361.63;6192344;28;20208;-55
2023/11/20 10:11:48;;;;;;;3.00;0.83;;;;;;;11.91;77.85;97371.97;6194044;28;20200;-58
2023/11/20 10:14:50;;;;;;;2.27;0.80;;;;;;;11.87;78.69;97368.19;6194219;28;20222;-59
2023/11/20 10:17:52;;;;;;;2.73;0.97;;;;;;;11.92;80.50;97392.28;6194077;28;20353;-60
2023/11/20 10:20:57;;;;;;;2.10;0.70;;;;;;;11.88;77.57;97375.97;6193795;28;20208;-56
2023/11/20 10:24:04;;;;;;;3.63;1.00;;;;;;;11.93;78.32;97374.38;6194334;28;20877;-60
2023/11/20 10:27:06;;;;;;;2.90;1.03;;;;;;;11.81;80.15;97374.53;6193377;28;20566;-60
2023/11/20 10:30:09;;;;;;;4.17;1.10;;;;;;;11.91;76.50;97366.63;6190247;28;20217;-60
2023/11/20 10:33:17;;;;;;;2.03;0.97;;;;;;;11.83;79.02;97369.78;6194006;28;20320;-60
2023/11/20 10:36:19;;;;;;;2.23;0.97;;;;;;;12.05;76.70;97359.75;6192065;28;20229;-59
2023/11/20 10:39:22;;;;;;;2.67;0.80;;;;;;;12.06;77.65;97368.56;6192776;28;20201;-59
2023/11/20 10:42:24;;;;;;;2.93;1.10;;;;;;;12.02;77.88;97368.31;6178691;28;20236;-59
2023/11/20 10:45:26;;;;;;;2.27;1.10;;;;;;;12.01;76.45;97361.34;6197972;28;20833;-58
2023/11/20 10:48:36;;;;;;;3.67;1.23;;;;;;;12.04;77.92;97355.50;6198703;28;20189;-60
2023/11/20 10:51:45;;;;;;;2.67;0.80;;;;;;;12.14;76.53;97352.88;6196686;28;20747;-59
2023/11/20 10:55:03;;;;;;;3.10;1.00;;;;;;;12.32;76.12;97342.81;6195714;28;20205;-61
2023/11/20 10:58:08;;;;;;;1.20;0.77;;;;;;;12.44;77.03;97348.72;6198681;28;20189;-59
2023/11/20 11:01:11;;;;;;;4.97;1.10;;;;;;;12.71;70.55;97351.25;6198239;28;20250;-58
2023/11/20 11:04:15;;;;;;;2.60;0.90;;;;;;;12.73;70.48;97345.63;6199125;28;20204;-58
2023/11/20 11:07:21;;;;;;;6.77;1.30;;;;;;;12.67;70.29;97344.81;6198667;28;20197;-60
2023/11/20 11:10:24;;;;;;;5.67;1.20;;;;;;;12.61;70.55;97348.50;6198003;28;20212;-60
2023/11/20 11:13:35;;;;;;;3.23;1.50;;;;;;;12.62;69.86;97350.13;6196489;28;20196;-57
2023/11/20 11:16:53;;;;;;;1.97;1.10;;;;;;;12.90;68.32;97333.59;6197700;28;20212;-59
2023/11/20 11:20:02;;;;;;;2.73;1.10;;;;;;;12.91;67.08;97329.88;6197124;28;20240;-61
2023/11/20 11:23:10;;;;;;;3.47;1.40;;;;;;;12.93;68.73;97329.63;6196149;28;20214;-61
2023/11/20 11:26:17;;;;;;;2.03;1.00;;;;;;;12.97;70.94;97316.53;6197981;28;20204;-57
2023/11/20 11:29:25;;;;;;;2.80;1.00;;;;;;;13.09;69.62;97331.22;6193538;28;20233;-60
2023/11/20 11:32:29;;;;;;;3.77;1.10;;;;;;;13.14;66.12;97298.34;6198066;28;20238;-60
2023/11/20 11:35:41;;;;;;;2.13;1.00;;;;;;;13.26;67.23;97292.78;6221839;28;20204;-60
2023/11/20 11:39:01;;;;;;;3.70;1.10;;;;;;;13.14;65.47;97309.03;6219023;28;20196;-60
2023/11/20 11:42:14;;;;;;;4.80;1.30;;;;;;;13.31;65.53;97287.41;6222038;28;20287;-58
2023/11/20 11:45:20;;;;;;;5.07;1.20;;;;;;;13.18;64.37;97302.09;6237620;28;20193;-60
2023/11/20 11:48:24;;;;;;;2.67;0.80;;;;;;;13.06;64.97;97285.53;6221213;28;20294;-60
2023/11/20 11:51:28;;;;;;;3.80;0.93;;;;;;;12.96;65.45;97291.66;6220471;28;20208;-55
2023/11/20 11:54:30;;;;;;;1.57;0.93;;;;;;;12.98;65.62;97299.41;6222178;28;20207;-57
2023/11/20 11:57:33;;;;;;;3.07;1.10;;;;;;;12.91;65.28;97299.69;6214481;28;20197;-59
2023/11/20 12:00:35;;;;;;;2.63;0.90;;;;;;;12.85;65.46;97306.06;6222196;28;20188;-56
2023/11/20 12:03:38;;;;;;;2.27;0.97;;;;;;;12.68;66.43;97271.56;6222010;28;20223;-58
2023/11/20 12:06:40;;;;;;;2.37;1.00;;;;;;;12.81;66.15;97264.91;6221114;28;20219;-55
2023/11/20 12:10:00;;;;;;;2.43;1.10;;;;;;;12.89;66.94;97280.41;6223215;28;20197;-58
2023/11/20 12:13:02;;;;;;;4.80;1.47;;;;;;;12.84;68.42;97288.44;6221912;28;20197;-61
2023/11/20 12:16:08;;;;;;;2.57;1.10;;;;;;;12.70;67.77;97284.66;6221521;28;20825;-58
2023/11/20 12:19:11;;;;;;;2.03;0.90;;;;;;;12.60;68.98;97272.88;6218892;28;20687;-59
2023/11/20 12:22:14;;;;;;;3.17;1.10;;;;;;;12.39;69.08;97282.72;6221326;28;20215;-59
2023/11/20 12:25:16;;;;;;;3.63;1.00;;;;;;;12.40;69.18;97278.19;6220144;28;20262;-60
2023/11/20 12:28:20;;;;;;;2.43;0.90;;;;;;;12.32;70.89;97278.72;6219096;28;20535;-59
2023/11/20 12:31:24;;;;;;;2.17;1.03;;;;;;;12.13;71.66;97271.16;6219166;28;20236;-57
2023/11/20 12:34:28;;;;;;;4.93;1.30;;;;;;;12.32;69.92;97274.16;6221309;28;20783;-56
2023/11/20 12:37:31;;;;;;;3.20;0.90;;;;;;;12.22;69.26;97263.47;6220803;28;20192;-59
2023/11/20 12:40:33;;;;;;;2.37;1.20;;;;;;;12.11;70.83;97265.25;6220399;28;20197;-56
2023/11/20 12:43:37;;;;;;;5.47;1.00;;;;;;;12.14;72.56;97271.97;6222431;28;20216;-60
2023/11/20 12:46:39;;;;;;;1.97;0.73;;;;;;;11.91;72.26;97265.19;6220433;28;20204;-60
2023/11/20 12:49:43;;;;;;;3.90;0.97;;;;;;;12.00;70.70;97258.28;6217983;28;20204;-59
2023/11/20 12:52:47;;;;;;;3.17;1.00;;;;;;;11.93;71.30;97254.28;6220298;28;20219;-60
2023/11/20 12:55:51;;;;;;;2.87;1.17;;;;;;;11.92;70.90;97245.47;6220717;28;20570;-60
2023/11/20 12:58:56;;;;;;;4.57;1.30;;;;;;;11.89;70.26;97251.31;6236052;28;20200;-60
2023/11/20 13:01:58;;;;;;;3.87;1.10;;;;;;;11.98;70.29;97244.41;6216775;28;20550;-59
2023/11/20 13:05:06;;;;;;;3.93;1.13;;;;;;;11.76;71.72;97247.22;6219981;28;20331;-59
2023/11/20 13:08:11;;;;;;;4.03;1.10;;;;;;;11.96;70.52;97241.19;6220322;28;20211;-58
2023/11/20 13:11:14;;;;;;;2.57;1.10;;;;;;;11.86;70.88;97249.16;6220213;28;20197;-56
2023/11/20 13:14:16;;;;;;;2.17;0.93;;;;;;;11.68;71.58;97230.91;6220206;28;20324;-54
2023/11/20 13:17:18;;;;;;;3.87;1.07;;;;;;;11.57;72.80;97243.38;6221009;28;20197;-56
2023/11/20 13:20:42;;;;;;;2.63;1.33;;;;;;;11.57;73.14;97246.03;6217805;28;20196;-55
2023/11/20 13:23:44;;;;;;;2.13;0.73;;;;;;;11.62;72.91;97241.56;6217215;28;20220;-59
2023/11/20 13:26:47;;;;;;;3.27;1.10;;;;;;;11.51;73.58;97241.75;6219734;28;20189;-52
2023/11/20 13:30:15;;;;;;;1.97;0.80;;;;;;;11.44;73.96;97231.31;6215239;28;20185;-60
2023/11/20 13:33:18;;;;;;;6.60;0.90;;;;;;;11.32;76.65;97244.03;6221024;28;20235;-54
2023/11/20 13:36:21;;;;;;;4.40;1.17;;;;;;;11.01;77.44;97209.16;6220092;28;20197;-55
2023/11/20 13:39:23;;;;;;;2.30;1.13;;;;;;;11.40;74.94;97242.75;6218067;28;20231;-58
2023/11/20 13:42:25;;;;;;;2.40;0.90;;;;;;;11.68;73.50;97239.72;6217713;28;20306;-60
2023/11/20 13:45:27;;;;;;;2.87;0.80;;;;;;;11.38;76.28;97248.34;6218405;28;20739;-59
2023/11/20 13:48:33;;;;;;;3.83;1.10;;;;;;;11.42;74.87;97241.41;6219344;28;20184;-56
2023/11/20 13:51:36;;;;;;;3.00;1.00;;;;;;;11.25;76.29;97243.47;6220470;28;20282;-56
2023/11/20 13:54:39;;;;;;;2.33;1.10;;;;;;;11.13;78.33;97248.16;6217214;28;21200;-57
2023/11/20 13:57:42;;;;;;;2.90;1.00;;;;;;;10.94;79.60;97256.56;6219314;28;20827;-56
2023/11/20 14:00:44;;;;;;;3.27;0.97;;;;;;;10.95;78.24;97255.50;6218096;28;20200;-58
2023/11/20 14:03:47;;;;;;;4.20;1.13;;;;;;;11.29;74.94;97249.88;6219749;28;20216;-59
2023/11/20 14:06:50;;;;;;;5.50;1.23;;;;;;;11.37;74.14;97252.84;6217006;28;20196;-60
2023/11/20 14:09:52;;;;;;;2.53;0.80;;;;;;;11.28;74.27;97248.25;6220008;28;20201;-60
2023/11/20 14:12:54;;;;;;;3.17;0.90;;;;;;;11.11;76.22;97243.88;6218389;28;20196;-57
2023/11/20 14:15:57;;;;;;;5.60;1.10;;;;;;;10.90;77.93;97239.47;6219102;28;20285;-59
2023/11/20 14:19:01;;;;;;;2.47;0.70;;;;;;;10.93;76.84;97241.59;6218632;28;20228;-58
2023/11/20 14:22:03;;;;;;;3.00;1.00;;;;;;;11.23;74.92;97234.88;6218694;28;20195;-58
2023/11/20 14:25:06;;;;;;;3.43;1.10;;;;;;;11.08;75.38;97252.41;6218898;28;20219;-56